Time;durP1;ratioP1;P1;durP2;ratioP2;P2;SDS_P1;SDS_P2;PMS_P1;PMS_P2;Temp;Humidity;BMP_temperature;BMP_pressure;BME280_temperature;BME280_humidity;BME280_pressure;Samples;Min_cycle;Max_cycle;Signal;HPM_P1;HPM_P2
2022/08/02 00:02:03;;;;;;;1.10;1.00;;;;;;;21.46;71.97;95833.53;4884138;29;20199;-81
2022/08/02 00:04:31;;;;;;;2.40;1.25;;;;;;;21.42;72.68;95835.84;4884981;29;20231;-81
2022/08/02 00:06:57;;;;;;;1.20;1.10;;;;;;;21.42;72.62;95841.09;4882105;29;20672;-81
2022/08/02 00:09:24;;;;;;;2.08;0.90;;;;;;;21.41;72.74;95844.72;4884018;29;20274;-80
2022/08/02 00:11:50;;;;;;;1.27;1.10;;;;;;;21.35;73.25;95856.19;4898379;29;20243;-81
2022/08/02 00:14:17;;;;;;;1.40;1.30;;;;;;;21.38;72.77;95858.31;4899022;29;20237;-81
2022/08/02 00:16:44;;;;;;;1.60;1.10;;;;;;;21.31;72.52;95862.91;4899763;29;20254;-80
2022/08/02 00:19:10;;;;;;;2.28;1.20;;;;;;;21.12;72.50;95866.75;4886651;29;20215;-81
2022/08/02 00:21:38;;;;;;;1.10;1.00;;;;;;;21.02;73.05;95870.75;4883814;29;20203;-81
2022/08/02 00:24:05;;;;;;;3.10;1.17;;;;;;;21.06;73.21;95867.69;4899225;29;20293;-81
2022/08/02 00:26:31;;;;;;;1.10;1.00;;;;;;;21.00;73.70;95872.81;4897559;29;20227;-80
2022/08/02 00:28:57;;;;;;;2.00;1.00;;;;;;;20.91;73.74;95871.63;4881535;29;20267;-81
2022/08/02 00:31:24;;;;;;;1.20;1.10;;;;;;;20.86;74.08;95865.50;4898349;29;20531;-81
2022/08/02 00:33:50;;;;;;;0.95;0.95;;;;;;;20.90;74.39;95867.41;4895371;29;20280;-80
2022/08/02 00:36:17;;;;;;;1.85;1.10;;;;;;;20.96;74.16;95863.88;4880680;29;20228;-80
2022/08/02 00:38:45;;;;;;;1.95;1.00;;;;;;;21.07;73.64;95866.66;4892514;29;20242;-80
2022/08/02 00:41:13;;;;;;;0.90;0.90;;;;;;;21.16;73.51;95870.50;4893974;29;20208;-80
2022/08/02 00:43:40;;;;;;;1.40;1.20;;;;;;;21.15;73.48;95859.22;4879911;29;20265;-80
2022/08/02 00:46:06;;;;;;;2.88;1.05;;;;;;;21.19;72.93;95854.28;4886203;29;20714;-80
2022/08/02 00:48:32;;;;;;;1.10;1.00;;;;;;;21.16;73.21;95847.72;4880754;29;20267;-80
2022/08/02 00:50:59;;;;;;;1.30;1.20;;;;;;;21.17;73.41;95841.41;4893459;29;20258;-79
2022/08/02 00:53:25;;;;;;;1.10;1.00;;;;;;;21.20;73.54;95843.59;4899148;29;20259;-80
2022/08/02 00:55:53;;;;;;;1.42;1.10;;;;;;;21.25;73.68;95846.31;4886371;29;20224;-81
2022/08/02 00:58:20;;;;;;;1.10;1.00;;;;;;;21.30;73.72;95848.22;4890142;29;20210;-80
2022/08/02 01:00:46;;;;;;;1.40;1.30;;;;;;;21.31;73.97;95845.38;4886316;29;20204;-79
2022/08/02 01:03:12;;;;;;;2.58;1.10;;;;;;;21.29;74.36;95846.66;4885515;29;20232;-80
2022/08/02 01:05:39;;;;;;;2.15;1.10;;;;;;;21.28;74.52;95848.47;4880387;29;20428;-80
2022/08/02 01:08:05;;;;;;;1.05;1.05;;;;;;;21.28;74.53;95853.72;4888165;29;20211;-79
2022/08/02 01:10:32;;;;;;;1.38;1.27;;;;;;;21.34;74.25;95854.59;4898389;29;20202;-80
2022/08/02 01:13:00;;;;;;;1.75;1.30;;;;;;;21.33;74.76;95850.38;4891802;29;20239;-80
2022/08/02 01:15:27;;;;;;;1.40;1.30;;;;;;;21.35;74.98;95856.97;4880090;29;20223;-80
2022/08/02 01:18:00;;;;;;;1.83;1.40;;;;;;;21.35;75.29;95856.97;4887058;29;20701;-80
2022/08/02 01:20:48;;;;;;;1.77;1.20;;;;;;;21.32;75.45;95852.22;4889045;29;20207;-80
2022/08/02 01:23:31;;;;;;;1.27;1.20;;;;;;;21.31;75.36;95855.84;4879711;29;20299;-81
2022/08/02 01:26:09;;;;;;;1.35;1.25;;;;;;;21.37;75.36;95854.09;4891266;29;20226;-80
2022/08/02 01:28:40;;;;;;;2.22;1.10;;;;;;;21.32;76.01;95857.44;4898361;29;20211;-80
2022/08/02 01:31:16;;;;;;;1.20;1.10;;;;;;;21.30;75.97;95848.22;4896322;29;20210;-80
2022/08/02 01:33:47;;;;;;;2.85;1.63;;;;;;;21.32;76.02;95854.81;4880243;29;20254;-80
2022/08/02 01:36:17;;;;;;;1.75;1.30;;;;;;;21.29;76.10;95854.50;4879920;29;20230;-80
2022/08/02 01:38:48;;;;;;;1.40;1.30;;;;;;;21.27;76.12;95846.09;4896475;29;20207;-81
2022/08/02 01:41:19;;;;;;;2.10;1.30;;;;;;;21.29;75.83;95844.03;4883026;29;20603;-80
2022/08/02 01:43:49;;;;;;;1.25;1.10;;;;;;;21.27;76.41;95846.88;4882537;29;20226;-80
2022/08/02 01:46:17;;;;;;;4.07;1.40;;;;;;;21.17;78.09;95841.41;4898489;29;20223;-80
2022/08/02 01:48:46;;;;;;;1.35;1.20;;;;;;;21.18;76.77;95845.63;4894375;29;20228;-81
2022/08/02 01:51:16;;;;;;;2.13;1.30;;;;;;;21.15;76.86;95840.09;4879018;29;20212;-80
2022/08/02 01:53:44;;;;;;;1.40;1.30;;;;;;;21.11;77.20;95842.38;4887968;29;20231;-81
2022/08/02 01:56:12;;;;;;;1.35;1.25;;;;;;;21.12;76.74;95840.56;4890501;29;20227;-80
2022/08/02 01:58:40;;;;;;;1.20;1.10;;;;;;;21.09;77.73;95839.22;4885163;29;20207;-80
2022/08/02 02:01:11;;;;;;;1.65;1.50;;;;;;;21.06;77.79;95841.50;4896395;29;20210;-80
2022/08/02 02:03:39;;;;;;;1.67;1.48;;;;;;;21.05;77.41;95832.84;4890582;29;20712;-80
2022/08/02 02:06:08;;;;;;;1.75;1.63;;;;;;;21.11;77.05;95839.78;4891194;29;20226;-80
2022/08/02 02:08:38;;;;;;;1.63;1.40;;;;;;;21.12;77.55;95838.75;4886356;29;20207;-80
2022/08/02 02:11:06;;;;;;;1.48;1.38;;;;;;;21.08;77.44;95837.63;4878370;29;20203;-81
2022/08/02 02:13:36;;;;;;;1.67;1.40;;;;;;;21.12;77.06;95835.31;4895550;29;20298;-80
2022/08/02 02:16:06;;;;;;;1.50;1.40;;;;;;;21.17;76.72;95832.78;4897936;29;20324;-80
2022/08/02 02:18:39;;;;;;;1.50;1.40;;;;;;;21.20;77.03;95829.72;4880088;29;20274;-79
2022/08/02 02:21:06;;;;;;;1.60;1.50;;;;;;;21.19;77.36;95834.13;4894344;29;20290;-80
2022/08/02 02:23:33;;;;;;;1.58;1.48;;;;;;;21.19;77.07;95836.75;4897525;29;20655;-81
2022/08/02 02:26:01;;;;;;;1.58;1.48;;;;;;;21.20;76.97;95812.19;4883857;29;20230;-80
2022/08/02 02:28:31;;;;;;;2.10;1.50;;;;;;;21.19;76.57;95828.09;4878365;29;20211;-80
2022/08/02 02:31:01;;;;;;;1.70;1.60;;;;;;;21.14;76.95;95828.03;4891882;29;20752;-81
2022/08/02 02:33:30;;;;;;;1.95;1.50;;;;;;;21.14;76.48;95823.59;4897123;29;20235;-81
2022/08/02 02:36:00;;;;;;;1.58;1.48;;;;;;;21.14;76.06;95820.19;4884001;29;20621;-80
2022/08/02 02:38:30;;;;;;;1.67;1.58;;;;;;;21.12;76.62;95830.88;4879058;29;20271;-80
2022/08/02 02:41:00;;;;;;;1.75;1.55;;;;;;;21.13;76.99;95824.63;4891192;29;20202;-81
2022/08/02 02:43:30;;;;;;;2.13;1.60;;;;;;;21.12;77.11;95828.25;4879654;29;20299;-81
2022/08/02 02:45:57;;;;;;;1.42;1.33;;;;;;;21.07;77.17;95836.03;4891027;29;20647;-80
2022/08/02 02:48:26;;;;;;;1.50;1.40;;;;;;;21.06;77.10;95833.63;4896946;29;20235;-81
2022/08/02 02:50:55;;;;;;;2.00;1.40;;;;;;;20.98;77.79;95835.59;4883400;29;20215;-80
2022/08/02 02:53:23;;;;;;;1.65;1.55;;;;;;;20.97;77.60;95831.38;4877921;29;20244;-80
2022/08/02 02:55:51;;;;;;;2.10;1.90;;;;;;;21.03;77.43;95837.53;4886050;29;20278;-81
2022/08/02 02:58:17;;;;;;;1.95;1.77;;;;;;;21.02;76.91;95838.53;4908871;29;20211;-80
2022/08/02 03:03:30;;;;;;;3.60;1.58;;;;;;;21.02;76.82;95828.06;4896437;29;20233;-81
2022/08/02 03:05:56;;;;;;;3.08;1.60;;;;;;;21.04;77.01;95833.88;4885327;29;20279;-80
2022/08/02 03:08:24;;;;;;;1.80;1.70;;;;;;;21.04;77.43;95831.25;4877256;29;20636;-81
2022/08/02 03:10:50;;;;;;;1.60;1.50;;;;;;;20.96;78.02;95842.13;4893024;29;20227;-80
2022/08/02 03:13:19;;;;;;;2.53;1.70;;;;;;;20.86;79.12;95831.47;4895927;29;20238;-80
2022/08/02 03:15:46;;;;;;;1.83;1.73;;;;;;;20.87;78.81;95833.84;4881762;29;20298;-80
2022/08/02 03:18:31;;;;;;;1.70;1.60;;;;;;;20.75;79.98;95842.78;4884798;29;20714;-81
2022/08/02 03:21:00;;;;;;;1.70;1.60;;;;;;;20.75;79.26;95842.78;4891603;29;20238;-81
2022/08/02 03:23:27;;;;;;;3.30;1.80;;;;;;;20.71;79.30;95846.88;4876827;29;20731;-79
2022/08/02 03:25:54;;;;;;;2.38;1.60;;;;;;;20.67;80.20;95851.78;4880065;29;20235;-81
2022/08/02 03:28:20;;;;;;;1.70;1.60;;;;;;;20.68;80.54;95859.41;4896404;29;20203;-80
2022/08/02 03:30:47;;;;;;;2.42;1.90;;;;;;;20.76;79.37;95852.22;4881139;29;20440;-80
2022/08/02 03:33:13;;;;;;;2.67;1.70;;;;;;;20.64;80.38;95850.44;4880878;29;20231;-79
2022/08/02 03:35:45;;;;;;;1.60;1.50;;;;;;;20.74;79.67;95860.31;4887549;29;20226;-79
2022/08/02 03:38:12;;;;;;;2.03;1.40;;;;;;;20.83;80.38;95856.28;4895583;29;20203;-79
2022/08/02 03:40:42;;;;;;;2.22;1.50;;;;;;;20.95;79.39;95862.28;4881656;29;20589;-79
2022/08/02 03:43:09;;;;;;;2.20;1.83;;;;;;;20.98;78.31;95851.31;4885962;29;20226;-79
2022/08/02 03:45:38;;;;;;;2.22;1.70;;;;;;;21.13;79.76;95860.47;4891254;29;20245;-79
2022/08/02 03:48:06;;;;;;;2.13;1.95;;;;;;;21.25;78.27;95845.53;4890662;29;20736;-78
2022/08/02 03:50:33;;;;;;;1.80;1.60;;;;;;;21.23;76.71;95850.19;4892630;29;20259;-80
2022/08/02 03:53:01;;;;;;;2.13;1.80;;;;;;;21.09;77.46;95844.44;4899009;29;20238;-81
2022/08/02 03:55:28;;;;;;;3.05;1.58;;;;;;;20.97;77.34;95854.97;4887527;29;20220;-80
2022/08/02 03:57:56;;;;;;;1.50;1.40;;;;;;;20.89;77.60;95852.72;4886871;29;20203;-79
2022/08/02 04:00:23;;;;;;;2.22;1.70;;;;;;;20.85;77.65;95846.38;4897996;29;20218;-79
2022/08/02 04:02:49;;;;;;;2.75;1.73;;;;;;;20.87;77.33;95851.38;4893227;29;20311;-79
2022/08/02 04:05:17;;;;;;;1.77;1.67;;;;;;;20.82;77.44;95851.28;4881372;29;20235;-79
2022/08/02 04:07:43;;;;;;;1.85;1.60;;;;;;;20.84;76.98;95854.44;4918204;29;20206;-80
2022/08/02 04:10:10;;;;;;;5.68;2.00;;;;;;;20.81;77.03;95858.31;4910726;29;20708;-78
2022/08/02 04:12:37;;;;;;;1.95;1.80;;;;;;;20.79;77.13;95860.38;4889102;29;20287;-80
2022/08/02 04:15:06;;;;;;;2.30;2.10;;;;;;;20.84;77.14;95857.06;4879410;29;20257;-79
2022/08/02 04:17:35;;;;;;;1.80;1.70;;;;;;;20.87;77.34;95854.78;4880125;29;20236;-79
2022/08/02 04:20:05;;;;;;;1.67;1.52;;;;;;;20.83;77.74;95864.13;4890934;29;20222;-78
2022/08/02 04:22:37;;;;;;;2.13;1.98;;;;;;;20.86;77.64;95868.09;4886242;29;20204;-79
2022/08/02 04:25:06;;;;;;;2.22;1.83;;;;;;;20.85;77.96;95864.69;4879691;29;20260;-80
2022/08/02 04:27:35;;;;;;;2.65;1.88;;;;;;;20.83;77.86;95869.38;4890249;29;20206;-79
2022/08/02 04:30:04;;;;;;;1.90;1.80;;;;;;;20.85;78.11;95867.31;4897354;29;20203;-78
2022/08/02 04:32:32;;;;;;;1.85;1.73;;;;;;;20.81;78.16;95878.47;4888000;29;20207;-79
2022/08/02 04:34:58;;;;;;;2.60;2.00;;;;;;;20.85;78.00;95876.97;4892721;29;20195;-79
2022/08/02 04:37:26;;;;;;;2.13;1.67;;;;;;;20.91;77.18;95870.81;4889585;29;20215;-79
2022/08/02 04:39:52;;;;;;;2.05;1.80;;;;;;;21.00;77.34;95879.88;4878949;29;20243;-78
2022/08/02 04:42:24;;;;;;;2.17;2.00;;;;;;;21.04;77.01;95889.66;4878079;29;20569;-79
2022/08/02 04:44:51;;;;;;;2.20;2.00;;;;;;;21.09;77.09;95888.97;4879108;29;20279;-81
2022/08/02 04:47:18;;;;;;;1.85;1.73;;;;;;;21.21;77.15;95889.72;4880572;29;20223;-79
2022/08/02 04:49:46;;;;;;;2.67;1.90;;;;;;;21.26;76.75;95900.28;4894844;29;20238;-79
2022/08/02 04:52:12;;;;;;;1.73;1.63;;;;;;;21.10;77.92;95901.03;4894719;29;20581;-80
2022/08/02 04:54:39;;;;;;;2.65;1.92;;;;;;;21.16;77.29;95904.53;4897409;29;20270;-79
2022/08/02 04:57:53;;;;;;;2.53;2.13;;;;;;;21.11;78.65;95905.22;4899173;29;20607;-79
2022/08/02 04:59:52;;;;;;;4.30;2.00;;;;;;;20.88;79.87;95906.13;4898222;29;20270;-79
2022/08/02 05:02:18;;;;;;;2.28;2.00;;;;;;;20.84;80.31;95907.59;4897747;29;20243;-80
2022/08/02 05:04:46;;;;;;;2.00;1.83;;;;;;;21.01;80.07;95900.59;4896579;29;20230;-79
2022/08/02 05:07:12;;;;;;;2.72;1.90;;;;;;;20.91;80.40;95895.19;4887418;29;20235;-79
2022/08/02 05:09:39;;;;;;;2.20;2.10;;;;;;;20.85;80.42;95898.72;4894674;29;20207;-80
2022/08/02 05:12:06;;;;;;;3.75;2.03;;;;;;;20.98;79.58;95900.25;4898405;29;20864;-80
2022/08/02 05:14:33;;;;;;;2.75;2.10;;;;;;;21.05;79.34;95895.69;4897636;29;20234;-79
2022/08/02 05:16:59;;;;;;;3.20;2.35;;;;;;;21.14;79.03;95896.13;4899051;29;20227;-80
2022/08/02 05:19:25;;;;;;;3.45;2.13;;;;;;;21.29;78.13;95889.34;4896705;29;20687;-80
2022/08/02 05:21:53;;;;;;;2.47;2.10;;;;;;;21.32;77.82;95899.34;4897778;29;20211;-81
2022/08/02 05:24:20;;;;;;;6.03;2.35;;;;;;;21.31;78.95;95896.97;4897517;29;20235;-80
2022/08/02 05:26:46;;;;;;;2.58;2.38;;;;;;;21.39;78.19;95896.56;4898385;29;20234;-79
2022/08/02 05:29:12;;;;;;;3.20;2.50;;;;;;;21.40;79.04;95892.13;4898265;29;20207;-79
2022/08/02 05:31:39;;;;;;;3.20;2.28;;;;;;;21.56;77.65;95893.97;4897098;29;20619;-78
2022/08/02 05:34:05;;;;;;;2.90;2.60;;;;;;;21.77;76.50;95890.63;4896534;29;20299;-79
2022/08/02 05:36:32;;;;;;;3.40;2.15;;;;;;;21.87;75.26;95892.63;4897804;29;20230;-78
2022/08/02 05:38:59;;;;;;;3.45;2.30;;;;;;;21.95;74.42;95897.44;4897256;29;20214;-79
2022/08/02 05:41:26;;;;;;;2.28;1.70;;;;;;;22.01;72.90;95896.53;4896662;29;20210;-79
2022/08/02 05:43:52;;;;;;;2.78;1.83;;;;;;;22.10;72.42;95905.59;4897364;29;20234;-80
2022/08/02 05:46:19;;;;;;;9.80;8.25;;;;;;;22.15;71.01;95905.63;4897556;29;20237;-80
2022/08/02 05:48:45;;;;;;;7.95;7.05;;;;;;;22.19;70.84;95905.97;4898448;29;20215;-79
2022/08/02 05:51:16;;;;;;;3.60;3.30;;;;;;;22.23;70.54;95915.75;4898142;29;20211;-79
2022/08/02 05:53:50;;;;;;;2.75;2.55;;;;;;;22.23;69.61;95913.13;4897456;29;20235;-80
2022/08/02 05:56:25;;;;;;;2.97;2.78;;;;;;;22.18;70.39;95909.63;4898532;29;20222;-80
2022/08/02 05:58:58;;;;;;;3.45;2.45;;;;;;;22.15;71.07;95908.25;4897735;29;20232;-79
2022/08/02 06:01:29;;;;;;;3.17;2.13;;;;;;;22.16;70.92;95914.31;4897076;29;20210;-81
2022/08/02 06:03:59;;;;;;;2.17;1.80;;;;;;;22.14;70.07;95911.13;4896703;29;20246;-80
2022/08/02 06:06:26;;;;;;;1.88;1.77;;;;;;;22.19;69.94;95909.38;4898215;29;20226;-80
2022/08/02 06:08:58;;;;;;;2.15;1.70;;;;;;;22.30;69.67;95912.94;4898155;29;20221;-78
2022/08/02 06:11:34;;;;;;;2.33;1.70;;;;;;;22.40;69.65;95921.75;4898859;29;20211;-80
2022/08/02 06:14:02;;;;;;;1.92;1.70;;;;;;;22.49;69.18;95916.09;4899899;29;20317;-79
2022/08/02 06:16:29;;;;;;;1.60;1.50;;;;;;;22.58;68.59;95922.47;4898273;29;20659;-79
2022/08/02 06:18:58;;;;;;;2.00;1.40;;;;;;;22.58;67.42;95928.53;4899122;29;20207;-80
2022/08/02 06:21:25;;;;;;;1.80;1.58;;;;;;;22.62;67.89;95920.97;4898772;29;20219;-80
2022/08/02 06:23:52;;;;;;;3.75;1.40;;;;;;;22.62;67.80;95932.25;4898340;29;20238;-81
2022/08/02 06:26:20;;;;;;;3.60;1.80;;;;;;;22.68;67.47;95927.88;4898965;29;20227;-80
2022/08/02 06:28:49;;;;;;;1.48;1.38;;;;;;;22.70;67.83;95915.31;4898407;29;20210;-80
2022/08/02 06:31:16;;;;;;;1.40;1.30;;;;;;;22.72;67.59;95921.88;4897862;29;20679;-80
2022/08/02 06:33:42;;;;;;;3.30;1.50;;;;;;;22.82;66.95;95923.88;4898116;29;20282;-80
2022/08/02 06:36:15;;;;;;;1.50;1.40;;;;;;;22.81;66.12;95924.13;4899260;29;20318;-79
2022/08/02 06:38:49;;;;;;;1.58;1.48;;;;;;;22.78;66.52;95914.09;4899404;29;20698;-81
2022/08/02 06:41:18;;;;;;;1.65;1.55;;;;;;;22.80;66.90;95915.44;4899141;29;20701;-80
2022/08/02 06:43:51;;;;;;;1.77;1.67;;;;;;;22.93;66.39;95914.25;4899026;29;20246;-81
2022/08/02 06:46:18;;;;;;;1.83;1.60;;;;;;;22.94;65.20;95918.47;4898938;29;20227;-80
2022/08/02 06:48:44;;;;;;;3.00;2.47;;;;;;;23.02;65.55;95918.84;4897295;29;20215;-81
2022/08/02 06:51:10;;;;;;;13.15;11.95;;;;;;;23.17;66.15;95920.84;4898409;29;20214;-80
2022/08/02 06:53:37;;;;;;;3.97;3.67;;;;;;;23.32;65.09;95914.94;4897775;29;20301;-80
2022/08/02 06:56:04;;;;;;;3.60;3.30;;;;;;;23.45;64.88;95919.03;4899062;29;20456;-79
2022/08/02 06:58:31;;;;;;;5.88;3.00;;;;;;;23.61;64.47;95918.94;4898616;29;20214;-79
2022/08/02 07:00:58;;;;;;;2.80;2.60;;;;;;;23.65;63.51;95920.03;4898604;29;20215;-80
2022/08/02 07:03:25;;;;;;;2.42;2.22;;;;;;;23.69;63.02;95915.03;4898607;29;20249;-79
2022/08/02 07:05:52;;;;;;;2.75;1.60;;;;;;;23.70;62.15;95911.34;4899173;29;20237;-80
2022/08/02 07:08:19;;;;;;;2.33;1.60;;;;;;;23.73;62.55;95916.13;4899157;29;20683;-80
2022/08/02 07:10:46;;;;;;;4.55;1.40;;;;;;;23.71;62.49;95920.84;4897739;29;20237;-81
2022/08/02 07:13:13;;;;;;;2.00;1.70;;;;;;;23.74;62.67;95915.88;4897945;29;20245;-79
2022/08/02 07:15:39;;;;;;;1.60;1.48;;;;;;;23.68;61.50;95919.50;4897200;29;20223;-80
2022/08/02 07:18:12;;;;;;;2.22;1.67;;;;;;;23.71;61.93;95913.75;4899137;29;20218;-80
2022/08/02 07:20:38;;;;;;;4.13;1.58;;;;;;;23.75;61.91;95919.28;4897914;29;20277;-80
2022/08/02 07:23:05;;;;;;;1.83;1.60;;;;;;;23.83;62.59;95918.06;4897033;29;20246;-79
2022/08/02 07:25:31;;;;;;;1.50;1.40;;;;;;;23.88;62.89;95916.22;4897018;29;20230;-81
2022/08/02 07:27:57;;;;;;;1.52;1.42;;;;;;;23.89;62.04;95922.28;4897795;29;20207;-80
2022/08/02 07:30:24;;;;;;;6.05;1.52;;;;;;;23.95;62.31;95916.03;4896772;29;20250;-81
2022/08/02 07:32:50;;;;;;;1.98;1.70;;;;;;;24.06;62.21;95915.03;4899382;29;20234;-79
2022/08/02 07:35:20;;;;;;;1.52;1.42;;;;;;;24.11;61.63;95915.09;4899845;29;20217;-79
2022/08/02 07:37:47;;;;;;;2.35;1.67;;;;;;;24.20;61.16;95910.16;4899457;29;20234;-81
2022/08/02 07:40:15;;;;;;;2.17;1.70;;;;;;;24.30;60.78;95918.91;4899406;29;20231;-80
2022/08/02 07:42:42;;;;;;;1.55;1.45;;;;;;;24.31;59.96;95911.81;4900025;29;20234;-79
2022/08/02 07:45:09;;;;;;;2.03;1.67;;;;;;;24.48;60.32;95907.16;4899274;29;20722;-80
2022/08/02 07:47:37;;;;;;;4.15;1.60;;;;;;;24.61;59.40;95914.63;4899136;29;20215;-79
2022/08/02 07:50:04;;;;;;;1.77;1.30;;;;;;;24.67;60.43;95912.78;4901139;29;20242;-78
2022/08/02 07:52:32;;;;;;;2.47;1.80;;;;;;;24.87;59.83;95912.88;4899696;29;20211;-80
2022/08/02 07:54:58;;;;;;;3.47;1.60;;;;;;;24.83;59.15;95909.16;4899064;29;20210;-79
2022/08/02 07:57:25;;;;;;;2.55;1.55;;;;;;;24.81;59.12;95907.84;4899863;29;20230;-80
2022/08/02 07:59:51;;;;;;;1.88;1.48;;;;;;;24.89;59.79;95909.97;4899992;29;20679;-80
2022/08/02 08:02:17;;;;;;;2.63;1.48;;;;;;;24.80;58.83;95909.69;4898253;29;20210;-80
2022/08/02 08:04:44;;;;;;;1.67;1.35;;;;;;;24.89;58.07;95905.50;4900025;29;20219;-79
2022/08/02 08:07:10;;;;;;;2.75;1.48;;;;;;;24.98;58.93;95900.56;4899537;29;20628;-80
2022/08/02 08:09:40;;;;;;;2.70;1.45;;;;;;;25.00;58.12;95907.16;4899406;29;20207;-79
2022/08/02 08:12:07;;;;;;;3.63;1.50;;;;;;;25.12;58.04;95902.44;4898785;29;20227;-80
2022/08/02 08:14:36;;;;;;;1.88;1.48;;;;;;;25.22;55.80;95906.94;4897501;29;20302;-81
2022/08/02 08:17:03;;;;;;;2.55;1.45;;;;;;;25.23;56.53;95905.06;4897325;29;20227;-82
2022/08/02 08:19:29;;;;;;;1.50;1.40;;;;;;;25.28;55.90;95903.25;4899031;29;20271;-82
2022/08/02 08:21:58;;;;;;;1.50;1.40;;;;;;;25.30;56.10;95895.09;4897811;29;20671;-82
2022/08/02 08:24:25;;;;;;;1.50;1.40;;;;;;;25.32;56.15;95895.63;4898197;29;20250;-82
2022/08/02 08:26:53;;;;;;;2.25;2.05;;;;;;;25.23;56.30;95897.16;4899026;29;20243;-83
2022/08/02 08:29:20;;;;;;;2.35;1.80;;;;;;;25.33;55.89;95891.94;4901649;29;20207;-82
2022/08/02 08:31:46;;;;;;;2.53;1.60;;;;;;;25.49;54.49;95901.44;4900414;29;20242;-82
2022/08/02 08:34:13;;;;;;;1.50;1.40;;;;;;;25.65;54.34;95896.97;4900639;29;20270;-82
2022/08/02 08:36:39;;;;;;;1.70;1.60;;;;;;;25.82;52.85;95900.16;4901990;29;20222;-82
2022/08/02 08:39:06;;;;;;;2.17;1.55;;;;;;;25.93;53.57;95893.81;4901208;29;20210;-82
2022/08/02 08:41:32;;;;;;;2.25;2.00;;;;;;;26.07;53.38;95892.22;4901368;29;20694;-82
2022/08/02 08:44:01;;;;;;;1.85;1.75;;;;;;;26.19;53.06;95891.91;4900979;29;20238;-82
2022/08/02 08:46:29;;;;;;;3.22;1.80;;;;;;;26.35;53.06;95884.81;4900731;29;20231;-82
2022/08/02 08:49:00;;;;;;;1.67;1.58;;;;;;;26.41;53.08;95881.84;4901323;29;20376;-82
2022/08/02 08:51:31;;;;;;;4.53;1.90;;;;;;;26.57;52.99;95884.44;4900161;29;20214;-82
2022/08/02 08:54:02;;;;;;;1.60;1.50;;;;;;;26.57;50.48;95887.09;4900793;29;20305;-82
2022/08/02 08:56:32;;;;;;;1.55;1.45;;;;;;;26.50;50.27;95887.38;4900379;29;20230;-82
2022/08/02 08:59:00;;;;;;;1.55;1.40;;;;;;;26.38;51.31;95877.09;4899565;29;20226;-81
2022/08/02 09:01:27;;;;;;;2.03;1.20;;;;;;;26.48;51.22;95879.72;4900034;29;20210;-82
2022/08/02 09:03:53;;;;;;;1.63;1.52;;;;;;;26.78;50.18;95883.28;4900208;29;20932;-82
2022/08/02 09:06:20;;;;;;;1.50;1.40;;;;;;;26.87;50.11;95881.69;4901587;29;20226;-82
2022/08/02 09:08:46;;;;;;;4.10;1.38;;;;;;;26.91;48.31;95885.38;4900712;29;20265;-82
2022/08/02 09:11:15;;;;;;;1.88;1.35;;;;;;;27.10;49.12;95888.22;4900647;29;20254;-82
2022/08/02 09:13:50;;;;;;;1.50;1.40;;;;;;;26.93;49.85;95893.03;4899787;29;20262;-82
2022/08/02 09:16:29;;;;;;;1.70;1.60;;;;;;;26.84;50.00;95888.31;4900012;29;20218;-82
2022/08/02 09:18:55;;;;;;;2.88;1.48;;;;;;;27.01;50.61;95881.91;4900046;29;20211;-82
2022/08/02 09:21:22;;;;;;;2.22;1.35;;;;;;;27.12;49.78;95897.44;4899096;29;20210;-82
2022/08/02 09:23:51;;;;;;;2.30;1.38;;;;;;;27.34;48.79;95899.66;4899833;29;20235;-82
2022/08/02 09:26:19;;;;;;;1.50;1.40;;;;;;;27.31;48.36;95892.31;4898794;29;20234;-82
2022/08/02 09:28:48;;;;;;;1.52;1.30;;;;;;;27.57;48.53;95894.75;4899858;29;20211;-81
2022/08/02 09:31:17;;;;;;;1.48;1.35;;;;;;;27.77;49.34;95894.63;4899465;29;20246;-82
2022/08/02 09:33:51;;;;;;;2.30;1.55;;;;;;;27.81;48.78;95891.16;4899321;29;20242;-82
2022/08/02 09:36:18;;;;;;;1.48;1.38;;;;;;;27.75;48.11;95902.84;4900996;29;20271;-82
2022/08/02 09:38:54;;;;;;;1.50;1.40;;;;;;;27.67;48.16;95900.81;4899380;29;20233;-82
2022/08/02 09:41:22;;;;;;;1.63;1.30;;;;;;;27.56;48.27;95906.41;4904263;29;20202;-82
2022/08/02 09:43:48;;;;;;;1.50;1.40;;;;;;;27.43;47.97;95911.25;4905269;29;20608;-82
2022/08/02 09:46:16;;;;;;;1.60;1.30;;;;;;;27.35;47.91;95901.25;4907253;29;20234;-82
2022/08/02 09:48:49;;;;;;;1.40;1.30;;;;;;;27.03;48.02;95893.78;4906119;29;20215;-82
2022/08/02 09:51:17;;;;;;;1.63;1.50;;;;;;;26.97;49.78;95897.50;4906979;29;20211;-82
2022/08/02 09:53:44;;;;;;;1.73;1.58;;;;;;;26.74;49.67;95892.84;4906311;29;20238;-82
2022/08/02 09:56:11;;;;;;;2.08;1.50;;;;;;;26.62;49.68;95887.88;4907100;29;20219;-82
2022/08/02 09:58:38;;;;;;;2.75;1.50;;;;;;;26.77;49.92;95895.72;4905432;29;20203;-82
2022/08/02 10:01:05;;;;;;;3.00;1.40;;;;;;;26.91;50.19;95897.78;4906195;29;20282;-81
2022/08/02 10:03:31;;;;;;;1.65;1.48;;;;;;;27.11;49.84;95889.78;4906039;29;20237;-81
2022/08/02 10:06:00;;;;;;;1.60;1.50;;;;;;;27.08;48.97;95885.03;4906844;29;20226;-81
2022/08/02 10:08:27;;;;;;;1.60;1.30;;;;;;;27.11;49.64;95880.00;4906439;29;20239;-82
2022/08/02 10:11:00;;;;;;;1.40;1.30;;;;;;;27.21;49.04;95883.63;4905365;29;20210;-81
2022/08/02 10:13:28;;;;;;;1.40;1.30;;;;;;;27.25;48.13;95876.75;4905409;29;20540;-81
2022/08/02 10:15:55;;;;;;;3.03;1.92;;;;;;;27.27;49.25;95879.91;4903991;29;20294;-81
2022/08/02 10:18:22;;;;;;;12.45;11.43;;;;;;;27.39;49.31;95877.69;4904454;29;20219;-81
2022/08/02 10:20:50;;;;;;;4.07;3.78;;;;;;;27.44;47.82;95886.38;4903405;29;20232;-81
2022/08/02 10:23:21;;;;;;;1.67;1.50;;;;;;;27.40;48.05;95890.66;4903870;29;20831;-81
2022/08/02 10:25:49;;;;;;;1.60;1.50;;;;;;;27.10;47.07;95882.91;4902889;29;20238;-82
2022/08/02 10:28:17;;;;;;;1.50;1.40;;;;;;;27.04;47.68;95886.66;4902559;29;20298;-81
2022/08/02 10:30:48;;;;;;;1.35;1.25;;;;;;;27.22;46.89;95879.94;4900567;29;20220;-81
2022/08/02 10:33:18;;;;;;;2.00;1.50;;;;;;;27.05;47.67;95885.59;4902246;29;20258;-81
2022/08/02 10:35:47;;;;;;;1.50;1.40;;;;;;;27.11;48.85;95876.56;4902402;29;20628;-81
2022/08/02 10:38:18;;;;;;;2.58;1.30;;;;;;;27.41;47.95;95883.50;4901387;29;20207;-81
2022/08/02 10:40:46;;;;;;;1.50;1.40;;;;;;;27.70;47.58;95875.66;4901792;29;20198;-82
2022/08/02 10:43:13;;;;;;;1.40;1.30;;;;;;;27.93;46.84;95872.25;4897903;29;20749;-80
2022/08/02 10:45:40;;;;;;;1.95;1.33;;;;;;;28.22;46.89;95876.78;4902443;29;20257;-81
2022/08/02 10:48:09;;;;;;;1.23;1.20;;;;;;;28.19;45.60;95876.25;4902414;29;20226;-80
2022/08/02 10:50:55;;;;;;;2.25;1.30;;;;;;;28.35;45.73;95865.50;4901136;29;20454;-80
2022/08/02 10:53:27;;;;;;;1.33;1.23;;;;;;;28.33;45.99;95865.78;4901608;29;20428;-81
2022/08/02 10:55:55;;;;;;;1.40;1.30;;;;;;;28.26;46.75;95857.41;4902539;29;20231;-81
2022/08/02 10:58:23;;;;;;;1.45;1.25;;;;;;;28.39;46.28;95855.94;4901585;29;20207;-80
2022/08/02 11:00:50;;;;;;;1.30;1.20;;;;;;;28.39;46.31;95856.72;4896434;29;20231;-81
2022/08/02 11:03:38;;;;;;;1.42;1.30;;;;;;;28.33;44.36;95862.34;4899536;29;20250;-81
2022/08/02 11:06:06;;;;;;;3.72;3.42;;;;;;;28.42;45.66;95853.50;4901108;29;20250;-80
2022/08/02 11:08:34;;;;;;;1.83;1.60;;;;;;;28.51;43.78;95862.38;4901895;29;20231;-80
2022/08/02 11:11:15;;;;;;;1.50;1.40;;;;;;;28.53;44.06;95852.31;4901672;29;20262;-80
2022/08/02 11:14:00;;;;;;;1.40;1.30;;;;;;;28.39;43.60;95837.38;4901149;29;20297;-81
2022/08/02 11:17:11;;;;;;;2.50;1.23;;;;;;;28.49;43.63;95834.59;4903254;29;20263;-81
2022/08/02 11:20:16;;;;;;;1.38;1.08;;;;;;;28.63;43.92;95832.06;4903126;29;20210;-80
2022/08/02 11:22:44;;;;;;;1.38;1.27;;;;;;;28.67;44.07;95830.44;4902248;29;20232;-81
2022/08/02 11:25:34;;;;;;;1.40;1.30;;;;;;;28.72;43.44;95831.13;4902317;29;20203;-81
2022/08/02 11:28:09;;;;;;;1.33;1.23;;;;;;;28.69;42.90;95825.59;4905711;29;20313;-81
2022/08/02 11:30:36;;;;;;;1.17;1.17;;;;;;;28.76;43.89;95826.06;4904909;29;20234;-81
2022/08/02 11:33:04;;;;;;;1.30;1.20;;;;;;;28.98;44.00;95830.81;4905755;29;20234;-81
2022/08/02 11:35:36;;;;;;;1.98;1.30;;;;;;;29.00;42.85;95823.38;4905149;29;20231;-81
2022/08/02 11:38:18;;;;;;;1.30;1.20;;;;;;;29.17;42.41;95831.59;4906263;29;20199;-81
2022/08/02 11:40:46;;;;;;;1.52;1.40;;;;;;;29.36;42.88;95813.78;4904119;29;20199;-81
2022/08/02 11:43:17;;;;;;;2.17;1.38;;;;;;;29.48;42.78;95816.00;4904525;29;20230;-81
2022/08/02 11:45:44;;;;;;;2.13;1.30;;;;;;;29.17;43.03;95819.13;4904046;29;20230;-81